Pontyberem, United Kingdom
Current Conditions -  °F | °C
As of 7:50 PM on Friday 21 Nov 2014 (Local Time) from EGOP Reporting Station
Broken Clouds Broken Clouds  
Wind Chill: 52°   Ceiling: 11000
Heat Index: 52°   Visibility: 4mi
Dew Point: 50°   Wind: 21mph
Humidity: 94%   Direction: 120°ESE
Pressure: 29.77"   Gusts: 32mph
Location:  51.78°N, 4.17°W
Report Text: EGOP 211950Z AUTO 12018G28KT 7000 // FEW006/// SCT032/// BKN110/// 11/10 Q1008
Loading
Personal Weather Stations






























Interactive Weather Map New forecast layout! Learn more

10-Day Weather Forecast

Advertisements
Track Severe Weather on mobile